Westwood, California
Current Conditions -  °F | °C
As of 5:35 AM on Thursday 29 Jan 2015 (Local Time) from KCIC Reporting Station
Clear Clear  
Wind Chill: 37°   Ceiling: Unl
Heat Index: 41°   Visibility: 10mi
Dew Point: 39°   Wind: 6mph
Humidity: 93%   Direction: 320°NW
Pressure: 30.17"   Gusts: NA
Location:  40.31°N, 121.01°W
Report Text: KCIC 291335Z AUTO 32005KT 10SM CLR 05/04 A3017 RMK AO1
Loading
Personal Weather Stations






























Interactive Weather Map New forecast layout! Learn more

10-Day Weather Forecast

Advertisements
Track Severe Weather on mobile